createdAt,value
2017-12-20T00:02:26.159Z,90.28
2017-12-20T00:04:52.423Z,90.69
2017-12-20T00:07:18.702Z,90.78
2017-12-20T00:09:44.902Z,90.91
2017-12-20T00:12:11.402Z,91.18
2017-12-20T00:14:38.228Z,91.04
2017-12-20T00:17:05.123Z,91.30
2017-12-20T00:19:31.306Z,91.19
2017-12-20T00:21:57.697Z,90.95
2017-12-20T00:24:23.862Z,91.06
2017-12-20T00:26:50.198Z,91.43
2017-12-20T00:29:16.407Z,91.44
2017-12-20T00:31:42.660Z,91.47
2017-12-20T00:34:09.187Z,91.47
2017-12-20T00:36:35.715Z,91.48
2017-12-20T00:39:02.839Z,91.21
2017-12-20T00:41:29.039Z,91.39
2017-12-20T00:43:56.207Z,91.51
2017-12-20T00:46:22.361Z,91.17
2017-12-20T00:48:49.303Z,91.09
2017-12-20T00:51:15.435Z,91.38
2017-12-20T00:53:42.511Z,91.34
2017-12-20T00:56:08.930Z,91.67
2017-12-20T00:58:36.287Z,91.62
2017-12-20T01:01:03.179Z,91.59
2017-12-20T01:03:29.382Z,91.60
2017-12-20T01:05:55.800Z,91.65
2017-12-20T01:08:22.802Z,91.58
2017-12-20T01:10:49.719Z,91.64
2017-12-20T01:13:15.958Z,92.22
2017-12-20T01:15:42.298Z,91.85
2017-12-20T01:18:08.675Z,91.41
2017-12-20T01:20:35.711Z,91.43
2017-12-20T01:23:01.968Z,91.78
2017-12-20T01:25:28.872Z,91.90
2017-12-20T01:27:55.178Z,92.00
2017-12-20T01:30:22.114Z,92.07
2017-12-20T01:32:49.008Z,91.39
2017-12-20T01:35:15.947Z,91.39
2017-12-20T01:37:42.390Z,91.26
2017-12-20T01:40:08.907Z,91.47
2017-12-20T01:42:35.331Z,91.00
2017-12-20T01:45:01.656Z,91.52
2017-12-20T01:47:28.584Z,91.42
2017-12-20T01:49:54.802Z,90.77
2017-12-20T01:52:20.953Z,91.06
2017-12-20T01:54:47.118Z,91.04
2017-12-20T01:57:14.479Z,91.22
2017-12-20T01:59:40.942Z,91.54
2017-12-20T02:02:07.347Z,92.00
2017-12-20T02:04:33.532Z,92.12
2017-12-20T02:07:00.436Z,92.31
2017-12-20T02:09:26.773Z,92.36
2017-12-20T02:11:52.926Z,92.18
2017-12-20T02:14:19.189Z,92.08
2017-12-20T02:16:45.375Z,91.99
2017-12-20T02:19:11.698Z,92.53
2017-12-20T02:21:39.170Z,92.16
2017-12-20T02:24:05.396Z,92.21
2017-12-20T02:26:32.335Z,92.49
2017-12-20T02:28:58.575Z,92.24
2017-12-20T02:31:24.966Z,92.55
2017-12-20T02:33:51.170Z,92.72
2017-12-20T02:36:18.126Z,92.59
2017-12-20T02:38:45.018Z,92.70
2017-12-20T02:41:11.407Z,92.62
2017-12-20T02:43:39.979Z,92.59
2017-12-20T02:46:06.650Z,92.70
2017-12-20T02:48:32.899Z,92.48
2017-12-20T02:50:59.223Z,92.15
2017-12-20T02:53:25.578Z,92.55
2017-12-20T02:55:51.776Z,92.50
2017-12-20T02:58:18.039Z,92.57
2017-12-20T03:00:44.218Z,92.62
2017-12-20T03:03:10.445Z,92.60
2017-12-20T03:05:37.177Z,92.56
2017-12-20T03:08:03.339Z,92.70
2017-12-20T03:10:29.620Z,92.46
2017-12-20T03:12:56.682Z,92.58
2017-12-20T03:15:22.878Z,92.45
2017-12-20T03:17:49.170Z,92.56
2017-12-20T03:20:15.294Z,92.64
2017-12-20T03:22:42.486Z,92.62
2017-12-20T03:25:09.014Z,92.59
2017-12-20T03:27:35.239Z,92.29
2017-12-20T03:30:02.180Z,92.45
2017-12-20T03:32:28.375Z,92.65
2017-12-20T03:34:54.598Z,92.43
2017-12-20T03:37:20.758Z,92.37
2017-12-20T03:39:46.911Z,92.45
2017-12-20T03:42:13.132Z,92.32
2017-12-20T03:44:39.409Z,92.29
2017-12-20T03:47:05.634Z,92.40
2017-12-20T03:49:31.919Z,92.43
2017-12-20T03:51:58.159Z,91.86
2017-12-20T03:54:24.410Z,92.30
2017-12-20T03:56:51.386Z,92.37
2017-12-20T03:59:17.597Z,92.03
2017-12-20T04:01:44.882Z,92.32
2017-12-20T04:04:11.919Z,92.19
2017-12-20T04:06:38.494Z,92.25
2017-12-20T04:09:04.683Z,92.19
2017-12-20T04:11:30.834Z,91.92
2017-12-20T04:13:57.328Z,91.59
2017-12-20T04:16:23.458Z,91.62
2017-12-20T04:18:50.352Z,91.64
2017-12-20T04:21:16.483Z,91.89
2017-12-20T04:23:42.759Z,91.76
2017-12-20T04:26:09.333Z,92.03
2017-12-20T04:28:35.623Z,91.94
2017-12-20T04:31:01.779Z,91.85
2017-12-20T04:33:27.962Z,91.65
2017-12-20T04:35:55.096Z,91.75
2017-12-20T04:38:21.360Z,91.65
2017-12-20T04:40:48.235Z,91.69
2017-12-20T04:43:15.491Z,91.91
2017-12-20T04:45:42.638Z,91.92
2017-12-20T04:48:09.695Z,91.84
2017-12-20T04:50:37.336Z,91.61
2017-12-20T04:53:03.579Z,91.43
2017-12-20T04:55:29.721Z,91.45
2017-12-20T04:57:56.175Z,91.52
2017-12-20T05:00:23.151Z,91.67
2017-12-20T05:02:49.380Z,91.73
2017-12-20T05:05:15.511Z,91.69
2017-12-20T05:07:41.923Z,91.71
2017-12-20T05:10:08.310Z,91.43
2017-12-20T05:12:34.561Z,91.49
2017-12-20T05:15:00.700Z,92.07
2017-12-20T05:17:27.096Z,92.08
2017-12-20T05:19:53.287Z,92.06
2017-12-20T05:22:20.264Z,92.39
2017-12-20T05:24:46.499Z,92.60
2017-12-20T05:27:13.379Z,92.59
2017-12-20T05:29:39.753Z,93.02
2017-12-20T05:32:06.469Z,92.73
2017-12-20T05:34:32.723Z,92.89
2017-12-20T05:36:59.728Z,92.72
2017-12-20T05:39:26.004Z,92.49
2017-12-20T05:41:52.936Z,92.27
2017-12-20T05:44:19.099Z,92.34
2017-12-20T05:46:46.006Z,91.95
2017-12-20T05:49:12.396Z,91.76
2017-12-20T05:51:38.998Z,91.74
2017-12-20T05:54:05.207Z,92.22
2017-12-20T05:56:31.388Z,92.25
2017-12-20T05:58:57.819Z,92.47
2017-12-20T06:01:24.854Z,92.63
2017-12-20T06:03:51.096Z,92.76
2017-12-20T06:06:17.283Z,92.92
2017-12-20T06:08:43.601Z,93.05
2017-12-20T06:11:10.011Z,92.94
2017-12-20T06:13:36.706Z,92.92
2017-12-20T06:16:03.739Z,92.84
2017-12-20T06:18:30.603Z,92.75
2017-12-20T06:20:56.956Z,92.43
2017-12-20T06:23:23.152Z,92.59
2017-12-20T06:25:50.090Z,92.71
2017-12-20T06:28:16.275Z,92.55
2017-12-20T06:30:43.172Z,92.57
2017-12-20T06:33:11.694Z,92.57
2017-12-20T06:35:40.451Z,92.50
2017-12-20T06:38:06.904Z,92.82
2017-12-20T06:40:33.904Z,92.53
2017-12-20T06:43:00.891Z,91.25
2017-12-20T06:45:27.247Z,92.32
2017-12-20T06:47:53.420Z,90.95
2017-12-20T06:50:19.638Z,92.13
2017-12-20T06:52:45.831Z,92.14
2017-12-20T06:55:12.860Z,92.24
2017-12-20T06:57:40.172Z,91.82
2017-12-20T07:00:07.550Z,91.87
2017-12-20T07:02:33.956Z,91.78
2017-12-20T07:05:00.146Z,91.84
2017-12-20T07:07:26.573Z,92.18
2017-12-20T07:09:52.851Z,93.01
2017-12-20T07:12:19.035Z,93.02
2017-12-20T07:14:45.936Z,93.57
2017-12-20T07:17:12.324Z,94.35
2017-12-20T07:19:38.655Z,93.85
2017-12-20T07:22:04.875Z,93.33
2017-12-20T07:24:31.122Z,93.25
2017-12-20T07:26:57.479Z,91.93
2017-12-20T07:29:23.662Z,92.71
2017-12-20T07:31:50.607Z,93.62
2017-12-20T07:34:17.946Z,92.40
2017-12-20T07:36:44.292Z,92.29
2017-12-20T07:39:10.607Z,92.10
2017-12-20T07:41:37.182Z,91.96
2017-12-20T07:44:03.454Z,91.70
2017-12-20T07:46:30.424Z,91.43
2017-12-20T07:48:56.868Z,92.31
2017-12-20T07:51:23.818Z,87.98
2017-12-20T07:53:50.726Z,89.05
2017-12-20T07:56:17.353Z,89.35
2017-12-20T07:58:43.527Z,90.21
2017-12-20T08:01:09.913Z,92.13
2017-12-20T08:03:36.479Z,90.18
2017-12-20T08:06:03.130Z,90.62
2017-12-20T08:08:29.364Z,90.08
2017-12-20T08:10:56.518Z,89.91
2017-12-20T08:13:23.479Z,89.78
2017-12-20T08:15:50.420Z,90.24
2017-12-20T08:18:16.624Z,90.12
2017-12-20T08:20:42.876Z,90.66
2017-12-20T08:23:09.347Z,90.76
2017-12-20T08:25:36.125Z,91.26
2017-12-20T08:28:05.127Z,90.49
2017-12-20T08:30:32.072Z,90.29
2017-12-20T08:32:59.065Z,90.15
2017-12-20T08:35:25.349Z,89.50
2017-12-20T08:37:51.587Z,89.64
2017-12-20T08:40:17.756Z,89.45
2017-12-20T08:42:44.719Z,90.12
2017-12-20T08:45:11.759Z,88.86
2017-12-20T08:47:38.196Z,88.90
2017-12-20T08:50:05.193Z,89.38
2017-12-20T08:52:32.172Z,89.44
2017-12-20T08:54:58.364Z,88.69
2017-12-20T08:57:24.691Z,88.96
2017-12-20T08:59:50.964Z,89.44
2017-12-20T09:02:17.259Z,89.29
2017-12-20T09:04:43.431Z,89.14
2017-12-20T09:07:09.726Z,88.11
2017-12-20T09:09:35.995Z,88.23
2017-12-20T09:12:02.184Z,87.87
2017-12-20T09:14:30.099Z,88.39
2017-12-20T09:16:56.318Z,88.34
2017-12-20T09:19:22.514Z,87.82
2017-12-20T09:21:49.390Z,87.68
2017-12-20T09:24:16.311Z,88.00
2017-12-20T09:26:42.514Z,86.82
2017-12-20T09:29:08.773Z,87.09
2017-12-20T09:31:34.923Z,87.04
2017-12-20T09:34:01.137Z,87.41
2017-12-20T09:36:27.409Z,87.59
2017-12-20T09:38:53.607Z,87.21
2017-12-20T09:41:20.478Z,86.94
2017-12-20T09:43:46.643Z,86.89
2017-12-20T09:46:12.802Z,85.22
2017-12-20T09:48:39.207Z,85.48
2017-12-20T09:51:05.395Z,84.89
2017-12-20T09:53:32.359Z,85.59
2017-12-20T09:55:58.503Z,85.97
2017-12-20T09:58:24.728Z,86.05
2017-12-20T10:00:50.874Z,86.11
2017-12-20T10:03:17.161Z,85.66
2017-12-20T10:05:44.163Z,85.90
2017-12-20T10:08:10.419Z,85.59
2017-12-20T10:10:37.503Z,85.98
2017-12-20T10:13:04.411Z,85.17
2017-12-20T10:15:30.679Z,85.73
2017-12-20T10:17:57.799Z,85.48
2017-12-20T10:20:24.046Z,85.02
2017-12-20T10:22:50.940Z,84.80
2017-12-20T10:25:17.257Z,86.04
2017-12-20T10:27:43.431Z,84.83
2017-12-20T10:30:09.766Z,85.13
2017-12-20T10:32:36.819Z,85.17
2017-12-20T10:35:03.778Z,86.13
2017-12-20T10:37:29.952Z,85.45
2017-12-20T10:39:56.149Z,85.04
2017-12-20T10:42:22.300Z,84.01
2017-12-20T10:44:48.477Z,84.87
2017-12-20T10:47:14.702Z,84.95
2017-12-20T10:49:41.761Z,83.29
2017-12-20T10:52:08.397Z,83.69
2017-12-20T10:54:35.363Z,84.00
2017-12-20T10:57:02.277Z,85.02
2017-12-20T10:59:28.483Z,85.17
2017-12-20T11:01:54.742Z,86.28
2017-12-20T11:04:21.254Z,86.32
2017-12-20T11:06:48.171Z,86.41
2017-12-20T11:09:14.382Z,87.19
2017-12-20T11:11:40.611Z,87.74
2017-12-20T11:14:07.157Z,88.01
2017-12-20T11:16:33.391Z,88.40
2017-12-20T11:19:00.322Z,87.29
2017-12-20T11:21:27.506Z,87.00
2017-12-20T11:23:54.444Z,86.63
2017-12-20T11:26:21.471Z,86.10
2017-12-20T11:28:47.634Z,86.50
2017-12-20T11:31:13.923Z,86.41
2017-12-20T11:33:40.240Z,87.62
2017-12-20T11:36:06.915Z,86.93
2017-12-20T11:38:33.079Z,87.70
2017-12-20T11:43:31.180Z,85.55
2017-12-20T11:45:59.465Z,82.74
2017-12-20T11:48:27.794Z,82.88
2017-12-20T11:50:56.100Z,83.20
2017-12-20T11:53:25.124Z,82.25
2017-12-20T11:55:54.171Z,83.03
2017-12-20T11:58:22.426Z,82.90
2017-12-20T12:00:50.712Z,83.09
2017-12-20T12:03:20.463Z,82.85
2017-12-20T12:05:48.747Z,83.96
2017-12-20T12:08:16.980Z,83.80
2017-12-20T12:10:45.300Z,84.47
2017-12-20T12:13:14.719Z,82.36
2017-12-20T12:15:43.766Z,82.31
2017-12-20T12:18:12.039Z,83.00
2017-12-20T12:20:40.381Z,84.01
2017-12-20T12:23:08.821Z,83.50
2017-12-20T12:25:37.142Z,82.36
2017-12-20T12:28:05.385Z,83.41
2017-12-20T12:30:33.691Z,82.80
2017-12-20T12:33:02.023Z,83.77
2017-12-20T12:35:30.263Z,83.17
2017-12-20T12:37:58.574Z,83.63
2017-12-20T12:40:26.911Z,83.82
2017-12-20T15:19:04.431Z,86.98
2017-12-20T15:21:32.667Z,87.79
2017-12-20T15:24:02.538Z,88.06
2017-12-20T15:26:30.783Z,88.27
2017-12-20T15:28:59.863Z,88.34
2017-12-20T15:31:28.149Z,88.51
2017-12-20T15:33:57.183Z,88.74
2017-12-20T15:36:25.469Z,88.57
2017-12-20T15:38:54.695Z,88.85
2017-12-20T15:41:24.458Z,88.73
2017-12-20T15:43:52.707Z,88.71
2017-12-20T15:46:21.732Z,89.24
2017-12-20T15:48:49.999Z,89.40
2017-12-20T15:51:19.022Z,89.36
2017-12-20T15:53:48.030Z,89.52
2017-12-20T15:56:16.299Z,89.54
2017-12-20T15:58:45.304Z,89.81
2017-12-20T16:01:13.596Z,89.91
2017-12-20T16:03:42.631Z,89.91
2017-12-20T16:06:10.950Z,89.64
2017-12-20T16:08:39.391Z,89.95
2017-12-20T16:11:07.782Z,89.82
2017-12-20T16:13:36.084Z,90.19
2017-12-20T16:16:04.356Z,89.83
2017-12-20T16:18:33.360Z,89.47
2017-12-20T16:21:02.395Z,89.71
2017-12-20T16:23:30.648Z,89.50
2017-12-20T16:25:58.910Z,89.88
2017-12-20T16:28:27.208Z,89.75
2017-12-20T16:30:55.513Z,89.64
2017-12-20T16:33:23.759Z,89.91
2017-12-20T16:35:52.016Z,89.88
2017-12-20T16:38:20.278Z,89.83
2017-12-20T16:40:52.940Z,89.88
2017-12-20T16:43:21.187Z,90.10
2017-12-20T16:45:49.443Z,90.31
2017-12-20T16:48:17.754Z,90.33
2017-12-20T16:50:46.935Z,90.61
2017-12-20T16:53:15.188Z,90.22
2017-12-20T16:55:43.474Z,90.21
2017-12-20T16:58:11.952Z,90.47
2017-12-20T17:00:40.453Z,90.35
2017-12-20T17:03:08.809Z,90.26
2017-12-20T17:05:37.275Z,90.05
2017-12-20T17:08:05.548Z,90.10
2017-12-20T17:10:33.817Z,89.51
2017-12-20T17:13:02.075Z,89.89
2017-12-20T17:15:31.108Z,89.65
2017-12-20T17:17:59.373Z,89.83
2017-12-20T17:20:27.668Z,90.17
2017-12-20T17:22:56.779Z,90.17
2017-12-20T17:25:26.412Z,89.58
2017-12-20T17:27:54.682Z,89.86
2017-12-20T17:30:23.733Z,90.32
2017-12-20T17:32:52.036Z,89.94
2017-12-20T17:35:20.390Z,89.72
2017-12-20T17:37:49.475Z,89.77
2017-12-20T17:40:17.765Z,89.63
2017-12-20T17:42:47.388Z,89.75
2017-12-20T17:45:17.131Z,89.46
2017-12-20T17:47:45.389Z,89.47
2017-12-20T17:50:13.632Z,89.50
2017-12-20T17:52:42.077Z,89.34
2017-12-20T17:55:10.376Z,89.55
2017-12-20T17:57:39.434Z,89.52
2017-12-20T18:00:07.704Z,89.58
2017-12-20T18:02:35.975Z,89.07
2017-12-20T18:05:04.285Z,88.93
2017-12-20T18:07:32.539Z,89.32
2017-12-20T18:10:01.609Z,89.24
2017-12-20T18:12:29.909Z,89.15
2017-12-20T18:14:58.193Z,89.40
2017-12-20T18:17:26.473Z,89.29
2017-12-20T18:19:55.509Z,89.14
2017-12-20T18:22:24.558Z,89.18
2017-12-20T18:24:52.888Z,89.31
2017-12-20T18:27:21.189Z,89.73
2017-12-20T18:29:49.457Z,89.64
2017-12-20T18:32:17.746Z,89.96
2017-12-20T18:34:45.981Z,90.07
2017-12-20T18:37:15.019Z,89.72
2017-12-20T18:39:43.263Z,89.75
2017-12-20T18:42:12.667Z,89.67
2017-12-20T18:44:40.948Z,88.92
2017-12-20T18:47:10.044Z,87.73
2017-12-20T18:49:38.349Z,88.11
2017-12-20T18:52:06.621Z,88.97
2017-12-20T18:54:34.874Z,88.89
2017-12-20T18:57:03.184Z,88.93
2017-12-20T18:59:31.477Z,88.78
2017-12-20T19:01:59.727Z,89.18
2017-12-20T19:04:28.802Z,89.36
2017-12-20T19:06:57.814Z,89.41
2017-12-20T19:09:26.112Z,89.50
2017-12-20T19:11:55.178Z,89.74
2017-12-20T19:14:23.484Z,89.10
2017-12-20T19:16:51.764Z,89.65
2017-12-20T19:19:20.070Z,89.87
2017-12-20T19:21:49.657Z,89.66
2017-12-20T19:24:17.970Z,89.38
2017-12-20T19:26:46.215Z,89.62
2017-12-20T19:29:14.473Z,89.14
2017-12-20T19:31:42.783Z,89.33
2017-12-20T19:34:11.860Z,89.14
2017-12-20T19:36:40.170Z,89.06
2017-12-20T19:39:09.261Z,89.06
2017-12-20T19:41:37.625Z,88.60
2017-12-20T19:44:05.917Z,88.34
2017-12-20T19:46:34.219Z,88.36
2017-12-20T19:49:02.468Z,88.63
2017-12-20T19:51:30.758Z,88.62
2017-12-20T19:53:59.062Z,88.33
2017-12-20T19:56:27.307Z,88.56
2017-12-20T19:58:56.442Z,88.63
2017-12-20T20:01:25.477Z,88.97
2017-12-20T20:03:53.778Z,89.25
2017-12-20T20:06:22.027Z,88.81
2017-12-20T20:08:50.352Z,89.11
2017-12-20T20:11:18.588Z,88.86
2017-12-20T20:13:48.030Z,89.44
2017-12-20T20:16:16.291Z,88.91
2017-12-20T20:18:45.342Z,88.96
2017-12-20T20:21:13.635Z,88.74
2017-12-20T20:23:41.943Z,88.87
2017-12-20T20:26:10.211Z,89.16
2017-12-20T20:28:38.518Z,88.67
2017-12-20T20:31:06.819Z,88.47
2017-12-20T20:33:35.111Z,88.58
2017-12-20T20:36:03.430Z,88.37
2017-12-20T20:38:31.867Z,88.47
2017-12-20T20:41:00.210Z,88.32
2017-12-20T20:43:29.307Z,88.41
2017-12-20T20:45:57.667Z,88.46
2017-12-20T20:48:25.930Z,88.02
2017-12-20T20:50:54.190Z,88.25
2017-12-20T20:53:22.494Z,88.74
2017-12-20T20:55:50.841Z,88.83
2017-12-20T20:58:19.144Z,88.71
2017-12-20T21:00:47.446Z,88.72
2017-12-20T21:03:16.539Z,88.65
2017-12-20T21:05:44.898Z,88.31
2017-12-20T21:08:13.275Z,88.28
2017-12-20T21:10:41.654Z,88.31
2017-12-20T21:13:10.832Z,87.87
2017-12-20T21:15:39.200Z,87.99
2017-12-20T21:18:07.492Z,88.27
2017-12-20T21:20:35.899Z,88.37
2017-12-20T21:23:04.317Z,87.78
2017-12-20T21:25:33.404Z,87.41
2017-12-20T21:28:02.478Z,87.80
2017-12-20T21:30:30.810Z,88.08
2017-12-20T21:32:59.877Z,87.97
2017-12-20T21:35:28.211Z,88.10
2017-12-20T21:37:57.299Z,88.57
2017-12-20T21:40:26.414Z,88.87
2017-12-20T21:42:54.744Z,88.34
2017-12-20T21:45:23.038Z,87.75
2017-12-20T21:47:51.402Z,88.07
2017-12-20T21:50:19.725Z,88.14
2017-12-20T21:52:48.022Z,88.67
2017-12-20T21:55:16.332Z,88.12
2017-12-20T21:57:44.636Z,88.56
2017-12-20T22:00:12.941Z,87.97
2017-12-20T22:02:42.021Z,87.81
2017-12-20T22:05:10.571Z,87.33
2017-12-20T22:07:38.934Z,86.52
2017-12-20T22:10:08.131Z,87.39
2017-12-20T22:12:38.685Z,88.01
2017-12-20T22:15:07.781Z,87.66
2017-12-20T22:17:36.102Z,87.58
2017-12-20T22:20:04.466Z,87.78
2017-12-20T22:22:32.780Z,87.33
2017-12-20T22:25:01.138Z,87.42
2017-12-20T22:27:29.467Z,88.02
2017-12-20T22:29:57.765Z,87.45
2017-12-20T22:32:26.161Z,87.74
2017-12-20T22:34:54.411Z,87.70
2017-12-20T22:37:22.746Z,87.76
2017-12-20T22:39:51.055Z,87.22
2017-12-20T22:42:19.352Z,87.50
2017-12-20T22:44:47.588Z,87.42
2017-12-20T22:47:15.963Z,87.29
2017-12-20T22:49:44.302Z,88.05
2017-12-20T22:52:12.615Z,87.75
2017-12-20T22:54:40.992Z,87.84
2017-12-20T22:57:09.363Z,88.15
2017-12-20T22:59:37.737Z,87.88
2017-12-20T23:02:06.035Z,87.82
2017-12-20T23:04:34.425Z,88.10
2017-12-20T23:07:02.663Z,88.24
2017-12-20T23:09:30.961Z,87.93
2017-12-20T23:11:59.293Z,87.33
2017-12-20T23:14:27.599Z,86.69
2017-12-20T23:16:55.849Z,87.05
2017-12-20T23:19:24.918Z,87.36
2017-12-20T23:21:53.232Z,87.33
2017-12-20T23:24:21.532Z,87.29
2017-12-20T23:26:50.943Z,87.41
2017-12-20T23:29:20.012Z,87.50
2017-12-20T23:31:48.243Z,87.98
2017-12-20T23:34:18.345Z,88.39
2017-12-20T23:36:46.957Z,89.24
2017-12-20T23:39:15.207Z,88.96
2017-12-20T23:41:43.471Z,89.06
2017-12-20T23:44:11.765Z,88.52
2017-12-20T23:46:40.039Z,87.98
2017-12-20T23:49:08.377Z,88.48
2017-12-20T23:51:36.664Z,87.50
2017-12-20T23:54:04.923Z,87.87
2017-12-20T23:56:33.219Z,88.19
2017-12-20T23:59:01.476Z,88.16
